sensor_id;sensor_type;location;lat;lon;timestamp;pressure;altitude;pressure_sealevel;temperature
70819;BMP280;58439;51.046;13.692;2023-07-02T00:01:00;98980.72;;;19.36
70819;BMP280;58439;51.046;13.692;2023-07-02T00:03:30;98979.69;;;19.37
70819;BMP280;58439;51.046;13.692;2023-07-02T00:05:57;98981.78;;;19.35
70819;BMP280;58439;51.046;13.692;2023-07-02T00:08:28;98981.31;;;19.33
70819;BMP280;58439;51.046;13.692;2023-07-02T00:10:55;98980.25;;;19.34
70819;BMP280;58439;51.046;13.692;2023-07-02T00:13:22;98974.38;;;19.37
70819;BMP280;58439;51.046;13.692;2023-07-02T00:15:49;98982.84;;;19.39
70819;BMP280;58439;51.046;13.692;2023-07-02T00:18:22;98986.56;;;19.38
70819;BMP280;58439;51.046;13.692;2023-07-02T00:21:15;98981.25;;;19.38
70819;BMP280;58439;51.046;13.692;2023-07-02T00:23:42;98988.16;;;19.39
70819;BMP280;58439;51.046;13.692;2023-07-02T00:26:12;98985.00;;;19.37
70819;BMP280;58439;51.046;13.692;2023-07-02T00:29:04;98981.78;;;19.35
70819;BMP280;58439;51.046;13.692;2023-07-02T00:32:15;98978.38;;;19.34
70819;BMP280;58439;51.046;13.692;2023-07-02T00:35:17;98983.97;;;19.33
70819;BMP280;58439;51.046;13.692;2023-07-02T00:38:08;98977.28;;;19.35
70819;BMP280;58439;51.046;13.692;2023-07-02T00:40:52;98982.66;;;19.30
70819;BMP280;58439;51.046;13.692;2023-07-02T00:43:27;98979.22;;;19.29
70819;BMP280;58439;51.046;13.692;2023-07-02T00:46:06;98992.78;;;19.28
70819;BMP280;58439;51.046;13.692;2023-07-02T00:48:39;98984.00;;;19.27
70819;BMP280;58439;51.046;13.692;2023-07-02T00:51:25;98987.47;;;19.28
70819;BMP280;58439;51.046;13.692;2023-07-02T00:54:09;98984.53;;;19.29
70819;BMP280;58439;51.046;13.692;2023-07-02T00:56:45;98985.31;;;19.30
70819;BMP280;58439;51.046;13.692;2023-07-02T00:59:25;98977.06;;;19.31
70819;BMP280;58439;51.046;13.692;2023-07-02T01:02:17;98983.97;;;19.33
70819;BMP280;58439;51.046;13.692;2023-07-02T01:04:55;98984.22;;;19.31
70819;BMP280;58439;51.046;13.692;2023-07-02T01:07:40;98981.88;;;19.29
70819;BMP280;58439;51.046;13.692;2023-07-02T01:10:09;98979.22;;;19.29
70819;BMP280;58439;51.046;13.692;2023-07-02T01:13:17;98985.38;;;19.25
70819;BMP280;58439;51.046;13.692;2023-07-02T01:16:22;98986.22;;;19.20
70819;BMP280;58439;51.046;13.692;2023-07-02T01:19:38;98971.09;;;19.21
70819;BMP280;58439;51.046;13.692;2023-07-02T01:22:44;98981.69;;;19.21
70819;BMP280;58439;51.046;13.692;2023-07-02T01:25:34;98978.75;;;19.22
70819;BMP280;58439;51.046;13.692;2023-07-02T01:28:18;98974.22;;;19.23
70819;BMP280;58439;51.046;13.692;2023-07-02T01:31:30;98976.66;;;19.19
70819;BMP280;58439;51.046;13.692;2023-07-02T01:34:05;98967.16;;;19.13
70819;BMP280;58439;51.046;13.692;2023-07-02T01:36:55;98969.88;;;19.08
70819;BMP280;58439;51.046;13.692;2023-07-02T01:39:26;98973.31;;;19.09
70819;BMP280;58439;51.046;13.692;2023-07-02T01:42:10;98971.69;;;19.13
70819;BMP280;58439;51.046;13.692;2023-07-02T01:44:52;98973.22;;;19.19
70819;BMP280;58439;51.046;13.692;2023-07-02T01:47:48;98967.66;;;19.20
70819;BMP280;58439;51.046;13.692;2023-07-02T01:50:47;98974.78;;;19.20
70819;BMP280;58439;51.046;13.692;2023-07-02T01:53:34;98976.94;;;19.18
70819;BMP280;58439;51.046;13.692;2023-07-02T01:56:21;98975.63;;;19.20
70819;BMP280;58439;51.046;13.692;2023-07-02T01:59:01;98983.03;;;19.18
70819;BMP280;58439;51.046;13.692;2023-07-02T02:02:39;98973.34;;;19.04
70819;BMP280;58439;51.046;13.692;2023-07-02T02:05:35;98978.69;;;18.98
70819;BMP280;58439;51.046;13.692;2023-07-02T02:08:09;98979.09;;;18.82
70819;BMP280;58439;51.046;13.692;2023-07-02T02:10:37;98984.78;;;18.65
70819;BMP280;58439;51.046;13.692;2023-07-02T02:13:06;98991.41;;;18.62
70819;BMP280;58439;51.046;13.692;2023-07-02T02:15:33;98986.91;;;18.63
70819;BMP280;58439;51.046;13.692;2023-07-02T02:18:03;98983.50;;;18.57
70819;BMP280;58439;51.046;13.692;2023-07-02T02:20:33;98984.28;;;18.53
70819;BMP280;58439;51.046;13.692;2023-07-02T02:23:14;98986.75;;;18.44
70819;BMP280;58439;51.046;13.692;2023-07-02T02:25:42;98984.38;;;18.43
70819;BMP280;58439;51.046;13.692;2023-07-02T02:28:23;98980.97;;;18.42
70819;BMP280;58439;51.046;13.692;2023-07-02T02:30:57;98991.00;;;18.45
70819;BMP280;58439;51.046;13.692;2023-07-02T02:33:27;98984.63;;;18.46
70819;BMP280;58439;51.046;13.692;2023-07-02T02:35:57;98998.66;;;18.47
70819;BMP280;58439;51.046;13.692;2023-07-02T02:38:47;98989.63;;;18.48
70819;BMP280;58439;51.046;13.692;2023-07-02T02:41:28;98994.16;;;18.47
70819;BMP280;58439;51.046;13.692;2023-07-02T02:44:26;98989.38;;;18.49
70819;BMP280;58439;51.046;13.692;2023-07-02T02:46:59;98991.44;;;18.52
70819;BMP280;58439;51.046;13.692;2023-07-02T02:49:32;99001.53;;;18.55
70819;BMP280;58439;51.046;13.692;2023-07-02T02:52:09;98990.63;;;18.57
70819;BMP280;58439;51.046;13.692;2023-07-02T02:55:14;98990.13;;;18.55
70819;BMP280;58439;51.046;13.692;2023-07-02T02:58:14;98995.16;;;18.56
70819;BMP280;58439;51.046;13.692;2023-07-02T03:01:07;99000.44;;;18.56
70819;BMP280;58439;51.046;13.692;2023-07-02T03:03:54;99000.44;;;18.56
70819;BMP280;58439;51.046;13.692;2023-07-02T03:06:31;98997.81;;;18.56
70819;BMP280;58439;51.046;13.692;2023-07-02T03:09:55;98992.00;;;18.54
70819;BMP280;58439;51.046;13.692;2023-07-02T03:12:33;98997.53;;;18.53
70819;BMP280;58439;51.046;13.692;2023-07-02T03:15:06;99001.56;;;18.50
70819;BMP280;58439;51.046;13.692;2023-07-02T03:18:53;99011.38;;;18.45
70819;BMP280;58439;51.046;13.692;2023-07-02T03:22:14;99006.31;;;18.48
70819;BMP280;58439;51.046;13.692;2023-07-02T03:25:12;99005.00;;;18.51
70819;BMP280;58439;51.046;13.692;2023-07-02T03:28:38;99007.34;;;18.57
70819;BMP280;58439;51.046;13.692;2023-07-02T03:31:15;99008.41;;;18.56
70819;BMP280;58439;51.046;13.692;2023-07-02T03:34:40;99011.56;;;18.58
70819;BMP280;58439;51.046;13.692;2023-07-02T03:37:26;99014.22;;;18.58
70819;BMP280;58439;51.046;13.692;2023-07-02T03:40:02;99014.72;;;18.60
70819;BMP280;58439;51.046;13.692;2023-07-02T03:46:43;99028.25;;;18.59
70819;BMP280;58439;51.046;13.692;2023-07-02T03:49:43;99025.41;;;18.50
70819;BMP280;58439;51.046;13.692;2023-07-02T03:52:22;99031.84;;;18.24
70819;BMP280;58439;51.046;13.692;2023-07-02T03:54:54;99030.59;;;18.06
70819;BMP280;58439;51.046;13.692;2023-07-02T03:57:33;99030.13;;;17.89
70819;BMP280;58439;51.046;13.692;2023-07-02T04:00:31;99043.63;;;17.77
70819;BMP280;58439;51.046;13.692;2023-07-02T04:02:59;99043.13;;;17.70
70819;BMP280;58439;51.046;13.692;2023-07-02T04:05:33;99049.72;;;17.72
70819;BMP280;58439;51.046;13.692;2023-07-02T04:08:00;99060.28;;;17.77
70819;BMP280;58439;51.046;13.692;2023-07-02T04:10:43;99055.53;;;17.85
70819;BMP280;58439;51.046;13.692;2023-07-02T04:13:28;99065.56;;;17.88
70819;BMP280;58439;51.046;13.692;2023-07-02T04:15:55;99065.31;;;17.89
70819;BMP280;58439;51.046;13.692;2023-07-02T04:18:27;99070.34;;;17.91
70819;BMP280;58439;51.046;13.692;2023-07-02T04:20:57;99071.41;;;17.95
70819;BMP280;58439;51.046;13.692;2023-07-02T04:23:31;99082.00;;;17.95
70819;BMP280;58439;51.046;13.692;2023-07-02T04:25:59;99083.53;;;17.96
70819;BMP280;58439;51.046;13.692;2023-07-02T04:29:18;99085.13;;;17.97
70819;BMP280;58439;51.046;13.692;2023-07-02T04:32:05;99081.69;;;17.96
70819;BMP280;58439;51.046;13.692;2023-07-02T04:34:32;99091.22;;;17.97
70819;BMP280;58439;51.046;13.692;2023-07-02T04:37:08;99090.66;;;18.00
70819;BMP280;58439;51.046;13.692;2023-07-02T04:39:35;99097.00;;;18.04
70819;BMP280;58439;51.046;13.692;2023-07-02T04:42:03;99096.25;;;18.04
70819;BMP280;58439;51.046;13.692;2023-07-02T04:44:30;99098.59;;;18.05
70819;BMP280;58439;51.046;13.692;2023-07-02T04:47:01;99096.25;;;18.04
70819;BMP280;58439;51.046;13.692;2023-07-02T04:49:28;99108.69;;;18.03
70819;BMP280;58439;51.046;13.692;2023-07-02T04:51:56;99109.19;;;18.05
70819;BMP280;58439;51.046;13.692;2023-07-02T04:54:23;99111.81;;;18.05
70819;BMP280;58439;51.046;13.692;2023-07-02T04:56:50;99114.47;;;18.05
70819;BMP280;58439;51.046;13.692;2023-07-02T04:59:21;99111.84;;;18.11
70819;BMP280;58439;51.046;13.692;2023-07-02T05:01:48;99109.72;;;18.13
70819;BMP280;58439;51.046;13.692;2023-07-02T05:04:19;99110.75;;;18.17
70819;BMP280;58439;51.046;13.692;2023-07-02T05:06:46;99111.00;;;18.20
70819;BMP280;58439;51.046;13.692;2023-07-02T05:09:14;99120.28;;;18.28
70819;BMP280;58439;51.046;13.692;2023-07-02T05:11:41;99118.41;;;18.33
70819;BMP280;58439;51.046;13.692;2023-07-02T05:14:08;99122.13;;;18.37
70819;BMP280;58439;51.046;13.692;2023-07-02T05:16:51;99131.59;;;18.44
70819;BMP280;58439;51.046;13.692;2023-07-02T05:19:32;99138.47;;;18.45
70819;BMP280;58439;51.046;13.692;2023-07-02T05:22:12;99131.88;;;18.47
70819;BMP280;58439;51.046;13.692;2023-07-02T05:25:00;99137.41;;;18.51
70819;BMP280;58439;51.046;13.692;2023-07-02T05:27:33;99122.56;;;18.55
70819;BMP280;58439;51.046;13.692;2023-07-02T05:30:06;99126.72;;;18.71
70819;BMP280;58439;51.046;13.692;2023-07-02T05:32:47;99137.53;;;18.80
70819;BMP280;58439;51.046;13.692;2023-07-02T05:36:23;99135.34;;;18.92
70819;BMP280;58439;51.046;13.692;2023-07-02T05:39:38;99133.72;;;19.06
70819;BMP280;58439;51.046;13.692;2023-07-02T05:42:30;99146.09;;;19.16
70819;BMP280;58439;51.046;13.692;2023-07-02T05:45:44;99150.25;;;19.27
70819;BMP280;58439;51.046;13.692;2023-07-02T05:49:03;99162.88;;;19.45
70819;BMP280;58439;51.046;13.692;2023-07-02T05:51:51;99157.72;;;19.59
70819;BMP280;58439;51.046;13.692;2023-07-02T05:55:20;99158.13;;;19.76
70819;BMP280;58439;51.046;13.692;2023-07-02T05:58:39;99158.97;;;19.72
70819;BMP280;58439;51.046;13.692;2023-07-02T06:01:52;99163.91;;;19.49
70819;BMP280;58439;51.046;13.692;2023-07-02T06:13:19;99168.28;;;19.30
70819;BMP280;58439;51.046;13.692;2023-07-02T06:16:47;99178.13;;;19.29
70819;BMP280;58439;51.046;13.692;2023-07-02T06:20:11;99177.31;;;19.29
70819;BMP280;58439;51.046;13.692;2023-07-02T06:24:17;99172.25;;;19.33
70819;BMP280;58439;51.046;13.692;2023-07-02T06:28:34;99175.06;;;19.46
70819;BMP280;58439;51.046;13.692;2023-07-02T06:31:45;99179.06;;;19.44
70819;BMP280;58439;51.046;13.692;2023-07-02T06:34:26;99179.47;;;19.61
70819;BMP280;58439;51.046;13.692;2023-07-02T06:37:02;99185.16;;;19.78
70819;BMP280;58439;51.046;13.692;2023-07-02T06:39:49;99194.06;;;19.92
70819;BMP280;58439;51.046;13.692;2023-07-02T06:42:30;99193.59;;;19.85
70819;BMP280;58439;51.046;13.692;2023-07-02T06:45:30;99190.44;;;19.83
70819;BMP280;58439;51.046;13.692;2023-07-02T06:48:20;99198.91;;;19.85
70819;BMP280;58439;51.046;13.692;2023-07-02T06:51:04;99198.03;;;19.95
70819;BMP280;58439;51.046;13.692;2023-07-02T06:54:45;99187.44;;;20.19
70819;BMP280;58439;51.046;13.692;2023-07-02T06:57:42;99190.63;;;20.21
70819;BMP280;58439;51.046;13.692;2023-07-02T07:00:31;99185.53;;;20.24
70819;BMP280;58439;51.046;13.692;2023-07-02T07:03:26;99191.16;;;20.18
70819;BMP280;58439;51.046;13.692;2023-07-02T07:06:37;99190.22;;;20.09
70819;BMP280;58439;51.046;13.692;2023-07-02T07:09:49;99190.91;;;20.14
70819;BMP280;58439;51.046;13.692;2023-07-02T07:13:02;99181.38;;;20.61
70819;BMP280;58439;51.046;13.692;2023-07-02T07:16:09;99190.47;;;20.79
70819;BMP280;58439;51.046;13.692;2023-07-02T07:18:36;99188.19;;;20.91
70819;BMP280;58439;51.046;13.692;2023-07-02T07:21:16;99196.19;;;21.10
70819;BMP280;58439;51.046;13.692;2023-07-02T07:23:46;99192.03;;;21.23
70819;BMP280;58439;51.046;13.692;2023-07-02T07:26:16;99187.34;;;21.33
70819;BMP280;58439;51.046;13.692;2023-07-02T07:28:43;99191.13;;;21.27
70819;BMP280;58439;51.046;13.692;2023-07-02T07:31:10;99191.22;;;21.22
70819;BMP280;58439;51.046;13.692;2023-07-02T07:33:38;99185.69;;;21.00
70819;BMP280;58439;51.046;13.692;2023-07-02T07:36:09;99181.28;;;21.09
70819;BMP280;58439;51.046;13.692;2023-07-02T07:38:45;99184.03;;;21.23
70819;BMP280;58439;51.046;13.692;2023-07-02T07:41:18;99190.25;;;21.32
70819;BMP280;58439;51.046;13.692;2023-07-02T07:43:51;99174.44;;;21.40
70819;BMP280;58439;51.046;13.692;2023-07-02T07:46:18;99178.91;;;21.45
70819;BMP280;58439;51.046;13.692;2023-07-02T07:48:55;99183.72;;;21.43
70819;BMP280;58439;51.046;13.692;2023-07-02T07:51:36;99182.81;;;21.66
70819;BMP280;58439;51.046;13.692;2023-07-02T07:54:13;99178.56;;;22.25
70819;BMP280;58439;51.046;13.692;2023-07-02T07:56:44;99170.59;;;22.61
70819;BMP280;58439;51.046;13.692;2023-07-02T07:59:37;99176.97;;;22.51
70819;BMP280;58439;51.046;13.692;2023-07-02T08:02:21;99179.50;;;22.57
70819;BMP280;58439;51.046;13.692;2023-07-02T08:05:11;99176.06;;;22.92
70819;BMP280;58439;51.046;13.692;2023-07-02T08:07:39;99175.38;;;23.23
70819;BMP280;58439;51.046;13.692;2023-07-02T08:10:10;99187.53;;;23.15
70819;BMP280;58439;51.046;13.692;2023-07-02T08:12:46;99184.84;;;23.06
70819;BMP280;58439;51.046;13.692;2023-07-02T08:15:15;99175.59;;;23.35
70819;BMP280;58439;51.046;13.692;2023-07-02T08:17:45;99178.16;;;23.40
70819;BMP280;58439;51.046;13.692;2023-07-02T08:20:15;99179.78;;;23.49
70819;BMP280;58439;51.046;13.692;2023-07-02T08:22:44;99186.03;;;23.23
70819;BMP280;58439;51.046;13.692;2023-07-02T08:25:11;99187.47;;;22.84
70819;BMP280;58439;51.046;13.692;2023-07-02T08:27:38;99188.16;;;22.62
70819;BMP280;58439;51.046;13.692;2023-07-02T08:30:06;99188.16;;;22.62
70819;BMP280;58439;51.046;13.692;2023-07-02T08:32:33;99190.13;;;22.70
70819;BMP280;58439;51.046;13.692;2023-07-02T08:35:01;99193.56;;;22.98
70819;BMP280;58439;51.046;13.692;2023-07-02T08:37:28;99190.75;;;23.03
70819;BMP280;58439;51.046;13.692;2023-07-02T08:39:55;99200.59;;;23.16
70819;BMP280;58439;51.046;13.692;2023-07-02T08:42:23;99198.28;;;23.24
70819;BMP280;58439;51.046;13.692;2023-07-02T08:44:53;99200.66;;;23.25
70819;BMP280;58439;51.046;13.692;2023-07-02T08:47:39;99210.25;;;23.26
70819;BMP280;58439;51.046;13.692;2023-07-02T08:51:04;99206.22;;;23.15
70819;BMP280;58439;51.046;13.692;2023-07-02T08:53:31;99200.34;;;23.04
70819;BMP280;58439;51.046;13.692;2023-07-02T08:56:03;99204.50;;;23.10
70819;BMP280;58439;51.046;13.692;2023-07-02T08:58:30;99201.13;;;23.05
70819;BMP280;58439;51.046;13.692;2023-07-02T09:01:10;99195.97;;;23.08
70819;BMP280;58439;51.046;13.692;2023-07-02T09:03:39;99199.00;;;23.15
70819;BMP280;58439;51.046;13.692;2023-07-02T09:06:09;99198.91;;;23.21
70819;BMP280;58439;51.046;13.692;2023-07-02T09:17:37;99196.59;;;23.28
70819;BMP280;58439;51.046;13.692;2023-07-02T09:20:12;99203.22;;;23.30
70819;BMP280;58439;51.046;13.692;2023-07-02T09:22:54;99207.19;;;23.64
70819;BMP280;58439;51.046;13.692;2023-07-02T09:25:22;99211.72;;;23.63
70819;BMP280;58439;51.046;13.692;2023-07-02T09:27:49;99209.94;;;23.50
70819;BMP280;58439;51.046;13.692;2023-07-02T09:30:16;99211.97;;;23.53
70819;BMP280;58439;51.046;13.692;2023-07-02T09:32:48;99202.97;;;23.71
70819;BMP280;58439;51.046;13.692;2023-07-02T09:35:20;99210.66;;;24.04
70819;BMP280;58439;51.046;13.692;2023-07-02T09:37:59;99205.78;;;24.54
70819;BMP280;58439;51.046;13.692;2023-07-02T09:40:47;99214.47;;;25.03
70819;BMP280;58439;51.046;13.692;2023-07-02T09:43:16;99213.19;;;24.74
70819;BMP280;58439;51.046;13.692;2023-07-02T09:45:50;99213.81;;;24.45
70819;BMP280;58439;51.046;13.692;2023-07-02T10:06:28;99220.94;;;24.76
70819;BMP280;58439;51.046;13.692;2023-07-02T10:10:36;99225.50;;;24.75
70819;BMP280;58439;51.046;13.692;2023-07-02T10:14:43;99214.94;;;25.13
70819;BMP280;58439;51.046;13.692;2023-07-02T10:17:33;99225.97;;;25.21
70819;BMP280;58439;51.046;13.692;2023-07-02T10:20:04;99214.28;;;25.34
70819;BMP280;58439;51.046;13.692;2023-07-02T10:23:20;99211.63;;;25.25
70819;BMP280;58439;51.046;13.692;2023-07-02T10:26:34;99216.47;;;25.49
70819;BMP280;58439;51.046;13.692;2023-07-02T10:29:01;99220.44;;;25.81
70819;BMP280;58439;51.046;13.692;2023-07-02T10:31:29;99218.00;;;25.97
70819;BMP280;58439;51.046;13.692;2023-07-02T10:34:46;99217.69;;;25.60
70819;BMP280;58439;51.046;13.692;2023-07-02T11:37:40;99198.66;;;29.53
70819;BMP280;58439;51.046;13.692;2023-07-02T11:48:57;99215.44;;;26.80
70819;BMP280;58439;51.046;13.692;2023-07-02T12:04:23;99228.31;;;31.00
70819;BMP280;58439;51.046;13.692;2023-07-02T12:16:40;99225.47;;;31.38
70819;BMP280;58439;51.046;13.692;2023-07-02T12:20:09;99217.91;;;31.74
70819;BMP280;58439;51.046;13.692;2023-07-02T12:22:44;99220.22;;;32.31
70819;BMP280;58439;51.046;13.692;2023-07-02T12:26:26;99227.19;;;33.10
70819;BMP280;58439;51.046;13.692;2023-07-02T12:33:47;99222.72;;;29.77
70819;BMP280;58439;51.046;13.692;2023-07-02T12:42:59;99228.19;;;29.81
70819;BMP280;58439;51.046;13.692;2023-07-02T12:46:59;99232.00;;;28.73
70819;BMP280;58439;51.046;13.692;2023-07-02T12:50:40;99241.97;;;28.45
70819;BMP280;58439;51.046;13.692;2023-07-02T12:53:43;99234.59;;;27.81
70819;BMP280;58439;51.046;13.692;2023-07-02T12:57:32;99252.03;;;29.31
70819;BMP280;58439;51.046;13.692;2023-07-02T13:01:44;99244.06;;;31.17
70819;BMP280;58439;51.046;13.692;2023-07-02T13:04:27;99252.91;;;30.18
70819;BMP280;58439;51.046;13.692;2023-07-02T13:06:55;99245.34;;;29.41
70819;BMP280;58439;51.046;13.692;2023-07-02T13:09:22;99248.94;;;28.33
70819;BMP280;58439;51.046;13.692;2023-07-02T13:11:50;99245.88;;;27.50
70819;BMP280;58439;51.046;13.692;2023-07-02T13:14:17;99253.28;;;27.08
70819;BMP280;58439;51.046;13.692;2023-07-02T13:16:44;99274.94;;;27.23
70819;BMP280;58439;51.046;13.692;2023-07-02T13:19:13;99265.19;;;26.98
70819;BMP280;58439;51.046;13.692;2023-07-02T13:21:40;99264.66;;;26.84
70819;BMP280;58439;51.046;13.692;2023-07-02T13:24:07;99267.91;;;28.01
70819;BMP280;58439;51.046;13.692;2023-07-02T13:26:35;99273.47;;;29.87
70819;BMP280;58439;51.046;13.692;2023-07-02T13:29:02;99263.94;;;29.30
70819;BMP280;58439;51.046;13.692;2023-07-02T13:31:30;99268.41;;;28.55
70819;BMP280;58439;51.046;13.692;2023-07-02T13:34:25;99265.66;;;27.90
70819;BMP280;58439;51.046;13.692;2023-07-02T13:37:18;99270.44;;;27.60
70819;BMP280;58439;51.046;13.692;2023-07-02T13:39:46;99261.97;;;27.83
70819;BMP280;58439;51.046;13.692;2023-07-02T13:42:15;99259.81;;;27.88
70819;BMP280;58439;51.046;13.692;2023-07-02T13:45:05;99259.91;;;28.81
70819;BMP280;58439;51.046;13.692;2023-07-02T13:47:32;99287.00;;;29.59
70819;BMP280;58439;51.046;13.692;2023-07-02T13:50:01;99261.06;;;29.86
70819;BMP280;58439;51.046;13.692;2023-07-02T13:52:47;99278.09;;;30.41
70819;BMP280;58439;51.046;13.692;2023-07-02T13:55:16;99269.31;;;29.30
70819;BMP280;58439;51.046;13.692;2023-07-02T13:57:47;99275.94;;;28.89
70819;BMP280;58439;51.046;13.692;2023-07-02T14:00:36;99275.38;;;30.22
70819;BMP280;58439;51.046;13.692;2023-07-02T14:03:07;99273.31;;;29.99
70819;BMP280;58439;51.046;13.692;2023-07-02T14:05:35;99282.91;;;29.50
70819;BMP280;58439;51.046;13.692;2023-07-02T14:08:09;99271.56;;;28.45
70819;BMP280;58439;51.046;13.692;2023-07-02T14:10:37;99274.94;;;27.93
70819;BMP280;58439;51.046;13.692;2023-07-02T14:13:09;99280.63;;;27.55
70819;BMP280;58439;51.046;13.692;2023-07-02T14:15:39;99289.50;;;27.35
70819;BMP280;58439;51.046;13.692;2023-07-02T14:18:07;99283.63;;;27.20
70819;BMP280;58439;51.046;13.692;2023-07-02T14:20:34;99289.28;;;26.86
70819;BMP280;58439;51.046;13.692;2023-07-02T14:23:01;99289.69;;;26.46
70819;BMP280;58439;51.046;13.692;2023-07-02T14:25:28;99295.09;;;26.08
70819;BMP280;58439;51.046;13.692;2023-07-02T14:33:30;99293.59;;;26.99
70819;BMP280;58439;51.046;13.692;2023-07-02T14:36:45;99297.13;;;29.19
70819;BMP280;58439;51.046;13.692;2023-07-02T14:40:47;99300.25;;;30.31
70819;BMP280;58439;51.046;13.692;2023-07-02T14:47:51;99302.22;;;29.08
70819;BMP280;58439;51.046;13.692;2023-07-02T14:51:23;99292.97;;;28.65
70819;BMP280;58439;51.046;13.692;2023-07-02T15:09:09;99312.53;;;25.76
70819;BMP280;58439;51.046;13.692;2023-07-02T15:24:31;99325.59;;;30.61
70819;BMP280;58439;51.046;13.692;2023-07-02T15:28:22;99325.09;;;31.36
70819;BMP280;58439;51.046;13.692;2023-07-02T15:43:41;99333.28;;;31.20
70819;BMP280;58439;51.046;13.692;2023-07-02T15:51:43;99320.28;;;29.08
70819;BMP280;58439;51.046;13.692;2023-07-02T15:55:07;99320.47;;;30.75
70819;BMP280;58439;51.046;13.692;2023-07-02T15:58:06;99329.50;;;31.67
70819;BMP280;58439;51.046;13.692;2023-07-02T16:01:50;99328.38;;;31.26
70819;BMP280;58439;51.046;13.692;2023-07-02T16:05:19;99334.19;;;31.05
70819;BMP280;58439;51.046;13.692;2023-07-02T16:07:57;99340.31;;;31.44
70819;BMP280;58439;51.046;13.692;2023-07-02T16:11:25;99338.78;;;30.47
70819;BMP280;58439;51.046;13.692;2023-07-02T16:15:20;99336.47;;;28.55
70819;BMP280;58439;51.046;13.692;2023-07-02T16:17:59;99340.03;;;28.72
70819;BMP280;58439;51.046;13.692;2023-07-02T16:20:36;99337.41;;;28.87
70819;BMP280;58439;51.046;13.692;2023-07-02T16:23:31;99335.19;;;29.76
70819;BMP280;58439;51.046;13.692;2023-07-02T16:26:35;99342.25;;;29.22
70819;BMP280;58439;51.046;13.692;2023-07-02T16:29:42;99337.56;;;27.81
70819;BMP280;58439;51.046;13.692;2023-07-02T16:32:38;99328.34;;;27.37
70819;BMP280;58439;51.046;13.692;2023-07-02T16:37:36;99340.25;;;26.95
70819;BMP280;58439;51.046;13.692;2023-07-02T16:46:16;99341.22;;;28.34
70819;BMP280;58439;51.046;13.692;2023-07-02T16:49:34;99350.78;;;30.14
70819;BMP280;58439;51.046;13.692;2023-07-02T16:53:21;99354.75;;;28.74
70819;BMP280;58439;51.046;13.692;2023-07-02T16:57:34;99352.94;;;29.62
70819;BMP280;58439;51.046;13.692;2023-07-02T17:00:22;99356.09;;;29.80
70819;BMP280;58439;51.046;13.692;2023-07-02T17:03:10;99353.97;;;30.36
70819;BMP280;58439;51.046;13.692;2023-07-02T17:06:48;99369.50;;;31.16
70819;BMP280;58439;51.046;13.692;2023-07-02T17:12:51;99365.72;;;30.78
70819;BMP280;58439;51.046;13.692;2023-07-02T17:15:39;99375.03;;;30.46
70819;BMP280;58439;51.046;13.692;2023-07-02T17:18:55;99371.47;;;29.35
70819;BMP280;58439;51.046;13.692;2023-07-02T17:25:02;99380.09;;;28.37
70819;BMP280;58439;51.046;13.692;2023-07-02T17:27:43;99381.09;;;28.68
70819;BMP280;58439;51.046;13.692;2023-07-02T17:30:44;99369.91;;;27.40
70819;BMP280;58439;51.046;13.692;2023-07-02T17:33:19;99373.59;;;27.35
70819;BMP280;58439;51.046;13.692;2023-07-02T17:35:50;99368.16;;;27.77
70819;BMP280;58439;51.046;13.692;2023-07-02T17:38:26;99376.56;;;27.87
70819;BMP280;58439;51.046;13.692;2023-07-02T17:41:12;99364.72;;;28.74
70819;BMP280;58439;51.046;13.692;2023-07-02T17:44:05;99370.25;;;29.76
70819;BMP280;58439;51.046;13.692;2023-07-02T17:47:05;99370.88;;;29.70
70819;BMP280;58439;51.046;13.692;2023-07-02T17:49:40;99364.00;;;29.01
70819;BMP280;58439;51.046;13.692;2023-07-02T17:52:37;99378.38;;;27.95
70819;BMP280;58439;51.046;13.692;2023-07-02T17:55:47;99368.31;;;26.76
70819;BMP280;58439;51.046;13.692;2023-07-02T17:58:16;99368.88;;;26.23
70819;BMP280;58439;51.046;13.692;2023-07-02T18:00:43;99370.53;;;25.90
70819;BMP280;58439;51.046;13.692;2023-07-02T18:03:10;99373.84;;;25.61
70819;BMP280;58439;51.046;13.692;2023-07-02T18:05:41;99373.81;;;25.26
70819;BMP280;58439;51.046;13.692;2023-07-02T18:08:08;99370.53;;;25.21
70819;BMP280;58439;51.046;13.692;2023-07-02T18:10:39;99379.63;;;24.94
70819;BMP280;58439;51.046;13.692;2023-07-02T18:13:08;99375.78;;;24.77
70819;BMP280;58439;51.046;13.692;2023-07-02T18:15:44;99378.22;;;25.05
70819;BMP280;58439;51.046;13.692;2023-07-02T18:18:27;99386.94;;;25.28
70819;BMP280;58439;51.046;13.692;2023-07-02T18:21:03;99375.44;;;25.44
70819;BMP280;58439;51.046;13.692;2023-07-02T18:23:32;99378.25;;;25.57
70819;BMP280;58439;51.046;13.692;2023-07-02T18:26:10;99379.34;;;25.30
70819;BMP280;58439;51.046;13.692;2023-07-02T18:28:37;99375.03;;;24.85
70819;BMP280;58439;51.046;13.692;2023-07-02T18:31:53;99374.06;;;24.81
70819;BMP280;58439;51.046;13.692;2023-07-02T18:34:55;99379.63;;;25.02
70819;BMP280;58439;51.046;13.692;2023-07-02T18:37:22;99378.38;;;25.00
70819;BMP280;58439;51.046;13.692;2023-07-02T18:39:55;99380.53;;;24.49
70819;BMP280;58439;51.046;13.692;2023-07-02T18:42:27;99384.38;;;24.04
70819;BMP280;58439;51.046;13.692;2023-07-02T18:45:04;99387.28;;;23.71
70819;BMP280;58439;51.046;13.692;2023-07-02T18:51:22;99384.28;;;23.37
70819;BMP280;58439;51.046;13.692;2023-07-02T18:54:07;99386.88;;;23.14
70819;BMP280;58439;51.046;13.692;2023-07-02T18:56:35;99386.88;;;23.01
70819;BMP280;58439;51.046;13.692;2023-07-02T18:59:02;99382.16;;;22.84
70819;BMP280;58439;51.046;13.692;2023-07-02T19:01:41;99384.00;;;22.70
70819;BMP280;58439;51.046;13.692;2023-07-02T19:04:16;99398.59;;;22.59
70819;BMP280;58439;51.046;13.692;2023-07-02T19:06:43;99384.59;;;22.53
70819;BMP280;58439;51.046;13.692;2023-07-02T19:09:11;99391.38;;;22.45
70819;BMP280;58439;51.046;13.692;2023-07-02T19:11:40;99397.19;;;22.34
70819;BMP280;58439;51.046;13.692;2023-07-02T19:14:10;99396.69;;;22.32
70819;BMP280;58439;51.046;13.692;2023-07-02T19:16:37;99398.34;;;22.28
70819;BMP280;58439;51.046;13.692;2023-07-02T19:19:05;99398.19;;;22.19